Latest METARs, TAFs and NOTAMs for SBCF


---------------------------------------------------------------------------
	(OBSERVATIONS)
SBCF 230400Z 11011KT CAVOK 16/11 Q1025=
SBCF 230300Z 11011KT CAVOK 17/11 Q1026=
SBCF 230200Z 10010KT CAVOK 18/11 Q1026=
---------------------------------------------------------------------------
	(TERMINAL AREA FORECAST)
SBCF 221600Z 2218/2318 09012KT CAVOK TX24/2219Z TN15/2309Z
    FM222200 11009KT CAVOK
    FM231200 13013KT CAVOK
    RMK PDF=
---------------------------------------------------------------------------
	(NOTAMS)


SBCF J0021/17 IAP ILS X OR LOC X RWY 16 WITHDRAWN REF: AIP AD
    2.24. 12 JAN 12:20 2017 UNTIL PERM. CREATED: 12 JAN 12:21
    2017

SBCF J0235/17 BHZ VOR 117.70MHZ SECT BTN RDL 202 AND 212 U/S
    REF: AIP AD 2.24 (SID UGRUL 1A RWY 34 E SID UGRUL 1B RWY
    16. 05 MAY 16:05 2017 UNTIL PERM. CREATED: 05 MAY 16:11 2017

SBCF J0236/17 BHZ VOR 117.70MHZ SECT BTN RDL 072 AND 082 U/S
    REF: AIP AD 2.24 (SID SINEK 1A RWY 16/34. 05 MAY 16:07 2017
    UNTIL PERM. CREATED: 05 MAY 16:13 2017

SBCF J0256/17 APRON 1,2 AND 3 GENERAL AVIATION ACFT COMPULSORY
    USE OF PUSHBACK OPERATION BY OWN MEANS TO EXIT OF THE PRKG
    PSN REF: AIP AD 2. 22 MAY 00:00 2017 UNTIL PERM. CREATED:
    16 MAY 01:52 2017

SBCF J0299/16 IF NDB 215KHZ WITHDRAWN REF: AIP AD 2.24 AIP ENR
    4.1, ENR 6.1 (ENRC L2/H2 CNS123W SEQUENCE CHECK FOR SBRJYNYX
    J -- EXPECTED J0300/16 -- RECEIVED J0299/16 CNN038W DUPLICATE
    NOTAM TRANSACTION ROLLED BACK, RETCODE = 14. 20 MAY 00:00
    2016 UNTIL PERM. CREATED: 12 MAY 19:39 2016

SBCF J0319/17 TWY ALFA 1 AND ALFA 2 CORRECT DESIGNATOR TO ALFA
    REF: AIP AD 2 AIP MAP ADC. 08 JUN 19:42 2017 UNTIL PERM.
    CREATED: 08 JUN 19:44 2017

SBCF J0337/17 PDC WITHDRAWN. 20 JUN 15:37 2017 UNTIL PERM. CREATED:
    20 JUN 15:39 2017

SBCF J0361/17 AD CNL RMK : TWY FOX BTN ALFA AND APRON NR 1 MAX
    WINGSPAN 36M. REF: AIP AD 2.20. 01 JUL 17:30 2017 UNTIL PERM.
    CREATED: 01 AUG 13:29 2017

SBCF J0380/17 SID RNAV AKRAR 1A RWY 34 CHANGED IC CF043 TO WAYPOINT
    WH019 REF:AIP AD 2.24. 15 JUL 16:13 2017 UNTIL PERM. CREATED:
    16 JUL 00:33 2017

SBCF J0444/17 FLOW CTL PROC ACT ACFT TKOF SBCF DEST SBRF, SBSV,
    SBGO SBKP, SBSP AND SBGR SHALL USE THE FLW PREFERRED RTE:
    SBRF: KOKSU UZ14 AVILA UZ59 ZIPAR 1- SBSV: KOKSU UZ16 POSMU
    UZ36 MUMAS 2- SBGO: SELDO UZ8 CORVO UZ46 3- SBKP: MOTMA UZ30
    ENTIT 4- SBSP: MOTMA UZ30 ENTIT 5 -SBGR: MAVBO UZ21 MOXEP.
    13 AUG 21:16 2017 UNTIL 08 NOV 23:59 2017. CREATED: 13 AUG
    21:51 2017

SBCF J0463/17 IC NDB 245KHZ WITHDRAWN REF: AIP AD 2.24 ARC BELO
    HORIZONTE ATCSMAC BELO HORIZONTE IAC ILS X OU/OR LOC X RWY
    16 IAC ILS K RWY 16 IAC ILS W OU/OR LOC W RWY 16 IAC ILS
    T RWY 16 SID RNAV GATOX 1A RWY 34. 21 AUG 15:21 2017 UNTIL
    PERM. CREATED: 21 AUG 15:28 2017

SBCF J0465/17 ILS MM RWY 16 WITHDRAWN REF: AD 2.24 IAC ILS K
    RWY 16 IAC ILS W OU/OR LOC W RWY 16 IAC ILS T RWY 16. 22
    AUG 00:57 2017 UNTIL PERM. CREATED: 22 AUG 00:59 2017

SBCF J0466/17 ILS OM RWY 16 WITHDRAWN REF: AD 2.24 IAC ILS K
    RWY 16 IAC ILS W OU/OR LOC W RWY 16 IAC ILS T RWY 16. 22
    AUG 01:10 2017 UNTIL PERM. CREATED: 22 AUG 01:13 2017

SBCF J0684/15 CPDLC D-CL (DATA LINK CLEARANCE) HR SER H24 INSTL
    REF: AIP AD 2. 28 AUG 00:00 2015 UNTIL PERM. CREATED: 17
    AUG 19:09 2015

SBCF J0691/15 CPDLC (DATA LINK ATIS) HR SER H24 INSTL REF: AIP
    AD 2.18 AD 2.24 SID, IAC, STAR, PDC AND ADC. 28 AUG 00:00
    2015 UNTIL PERM. CREATED: 19 AUG 17:44 2015

SBCF J0894/16 SID RNAV GATOX 1A RWY 34 CHANGED IC NDB 245KHZ
    TO WAYPOINT CF012 REF:AIP AD 2.24. 13 DEC 17:41 2016 UNTIL
    PERM. CREATED: 13 DEC 19:00 2016

---------------------------------------------------------------------------